Time;durP1;ratioP1;P1;durP2;ratioP2;P2;SDS_P1;SDS_P2;PMS_P1;PMS_P2;Temp;Humidity;BMP_temperature;BMP_pressure;BME280_temperature;BME280_humidity;BME280_pressure;Samples;Min_cycle;Max_cycle;Signal;HPM_P1;HPM_P2
2021/12/29 00:00:14;;;;;;;10.95;9.05;;;22.90;69.80;;;;;;6207000;28;88440;-74
2021/12/29 00:03:16;;;;;;;10.30;8.52;;;22.90;69.60;;;;;;6209265;28;88625;-73
2021/12/29 00:06:20;;;;;;;11.27;8.80;;;22.90;69.60;;;;;;6209734;28;88174;-74
2021/12/29 00:09:22;;;;;;;11.68;9.13;;;22.80;69.50;;;;;;6198400;28;89952;-75
2021/12/29 00:12:26;;;;;;;11.35;8.88;;;22.80;69.60;;;;;;6191327;28;89338;-75
2021/12/29 00:15:28;;;;;;;10.50;7.97;;;22.80;69.60;;;;;;6211173;28;89182;-75
2021/12/29 00:18:32;;;;;;;10.00;8.50;;;22.70;69.40;;;;;;6209506;28;87926;-74
2021/12/29 00:21:37;;;;;;;10.82;9.07;;;22.70;69.40;;;;;;6210832;28;89307;-73
2021/12/29 00:24:39;;;;;;;13.15;9.27;;;22.70;69.40;;;;;;6198377;28;88486;-76
2021/12/29 00:27:42;;;;;;;9.60;8.27;;;22.70;69.30;;;;;;6210649;28;89207;-75
2021/12/29 00:30:44;;;;;;;10.55;8.48;;;22.70;69.40;;;;;;6210138;28;88275;-76
2021/12/29 00:33:47;;;;;;;9.40;8.00;;;22.70;69.30;;;;;;6209064;28;89174;-74
2021/12/29 00:36:50;;;;;;;8.70;7.40;;;22.70;69.40;;;;;;6209609;28;89206;-74
2021/12/29 00:39:53;;;;;;;9.38;7.90;;;22.60;69.30;;;;;;6196394;28;90057;-74
2021/12/29 00:42:55;;;;;;;8.63;7.40;;;22.60;69.30;;;;;;6209037;28;89519;-74
2021/12/29 00:45:58;;;;;;;9.38;7.75;;;22.60;69.30;;;;;;6215899;28;87965;-73
2021/12/29 00:49:00;;;;;;;9.25;7.78;;;22.60;69.30;;;;;;6203023;28;89177;-73
2021/12/29 00:52:06;;;;;;;9.88;7.50;;;22.60;69.10;;;;;;6211680;28;89285;-73
2021/12/29 00:55:09;;;;;;;9.25;7.40;;;22.60;69.00;;;;;;6206556;28;88297;-74
2021/12/29 00:58:11;;;;;;;8.70;7.45;;;22.60;68.80;;;;;;6221618;28;89134;-73
2021/12/29 01:01:13;;;;;;;8.18;7.15;;;22.60;68.90;;;;;;6211416;28;87078;-74
2021/12/29 01:04:15;;;;;;;7.95;7.13;;;22.60;68.80;;;;;;6209513;28;88966;-73
2021/12/29 01:07:19;;;;;;;8.48;7.05;;;22.60;68.80;;;;;;6195339;28;88969;-74
2021/12/29 01:10:21;;;;;;;7.82;6.65;;;22.60;68.80;;;;;;6210072;28;89394;-74
2021/12/29 01:13:30;;;;;;;8.43;7.05;;;22.60;68.80;;;;;;6201881;28;89124;-74
2021/12/29 01:16:38;;;;;;;8.63;6.72;;;22.50;68.70;;;;;;6197588;28;89645;-73
2021/12/29 01:19:40;;;;;;;7.53;6.35;;;22.50;68.80;;;;;;6216161;28;88863;-72
2021/12/29 01:22:44;;;;;;;7.57;6.40;;;22.50;69.60;;;;;;6208465;28;88260;-76
2021/12/29 01:25:46;;;;;;;7.85;6.20;;;22.50;68.80;;;;;;6210208;28;89110;-75
2021/12/29 01:28:48;;;;;;;9.27;6.50;;;22.50;68.70;;;;;;6194468;28;89070;-76
2021/12/29 01:31:50;;;;;;;6.65;5.93;;;22.50;68.60;;;;;;6203843;28;88633;-76
2021/12/29 01:34:52;;;;;;;6.97;5.95;;;22.40;68.60;;;;;;6208647;28;89024;-73
2021/12/29 01:37:55;;;;;;;7.70;5.65;;;22.40;68.70;;;;;;6207046;28;89081;-75
2021/12/29 01:40:57;;;;;;;6.18;5.40;;;22.40;68.70;;;;;;6195083;28;90441;-73
2021/12/29 01:44:00;;;;;;;7.05;5.95;;;22.50;68.70;;;;;;6207615;28;89112;-75
2021/12/29 01:47:02;;;;;;;6.55;5.30;;;22.50;68.60;;;;;;6207633;28;89004;-75
2021/12/29 01:50:08;;;;;;;5.97;5.38;;;22.50;68.50;;;;;;6209537;28;89045;-74
2021/12/29 01:53:21;;;;;;;6.53;5.43;;;22.40;68.40;;;;;;6207313;28;89070;-75
2021/12/29 01:56:23;;;;;;;6.55;5.57;;;22.40;68.40;;;;;;6196776;28;89159;-75
2021/12/29 01:59:27;;;;;;;6.03;5.40;;;22.50;68.40;;;;;;6209203;28;89167;-75
2021/12/29 02:02:29;;;;;;;5.75;5.15;;;22.50;68.50;;;;;;6209516;28;88491;-72
2021/12/29 02:05:31;;;;;;;5.82;5.18;;;22.40;68.40;;;;;;6206872;28;89079;-74
2021/12/29 02:08:35;;;;;;;5.78;4.90;;;22.40;68.40;;;;;;6202767;28;89320;-74
2021/12/29 02:11:38;;;;;;;7.95;5.20;;;22.30;68.40;;;;;;6200920;28;89229;-74
2021/12/29 02:14:40;;;;;;;5.55;4.97;;;22.30;68.50;;;;;;6208028;28;89156;-74
2021/12/29 02:17:42;;;;;;;6.93;4.90;;;22.30;68.60;;;;;;6200060;28;89127;-74
2021/12/29 02:20:48;;;;;;;5.30;4.80;;;22.30;68.60;;;;;;6207045;28;89138;-76
2021/12/29 02:24:15;;;;;;;5.63;4.82;;;22.30;68.50;;;;;;6206954;28;89173;-76
2021/12/29 02:27:18;;;;;;;6.13;5.03;;;22.30;68.70;;;;;;6205263;28;89018;-73
2021/12/29 02:30:22;;;;;;;5.80;4.90;;;22.30;68.60;;;;;;6206879;28;88213;-74
2021/12/29 02:33:24;;;;;;;5.43;4.60;;;22.20;68.60;;;;;;6208355;28;88328;-74
2021/12/29 02:36:28;;;;;;;6.55;4.90;;;22.20;68.60;;;;;;6207282;28;89138;-73
2021/12/29 02:42:50;;;;;;;5.57;5.00;;;22.20;68.60;;;;;;6202456;28;88901;-72
2021/12/29 02:45:58;;;;;;;5.93;4.80;;;22.20;68.50;;;;;;6210398;28;89144;-72
2021/12/29 02:49:02;;;;;;;6.70;4.85;;;22.30;68.60;;;;;;6191784;28;89177;-73
2021/12/29 02:52:25;;;;;;;6.32;4.80;;;22.20;68.60;;;;;;6206702;28;89036;-72
2021/12/29 02:55:27;;;;;;;6.80;4.65;;;22.20;68.50;;;;;;6207352;28;89089;-76
2021/12/29 02:58:31;;;;;;;5.93;4.75;;;22.20;68.60;;;;;;6209939;28;89183;-73
2021/12/29 03:01:33;;;;;;;6.03;4.85;;;22.20;68.60;;;;;;6205698;28;88255;-72
2021/12/29 03:04:35;;;;;;;6.10;5.40;;;22.20;68.70;;;;;;6208074;28;88352;-71
2021/12/29 03:07:38;;;;;;;6.70;5.00;;;22.10;68.80;;;;;;6206092;28;89060;-72
2021/12/29 03:10:41;;;;;;;5.70;5.10;;;22.10;68.80;;;;;;6203787;28;89041;-72
2021/12/29 03:13:43;;;;;;;6.65;5.88;;;22.20;68.90;;;;;;6198071;28;88878;-73
2021/12/29 03:16:45;;;;;;;7.75;5.78;;;22.10;68.90;;;;;;6204560;28;89156;-71
2021/12/29 03:19:47;;;;;;;5.80;5.13;;;22.10;69.10;;;;;;6207413;28;89104;-72
2021/12/29 03:22:51;;;;;;;6.30;5.35;;;22.10;69.10;;;;;;6197210;28;89022;-73
2021/12/29 03:25:53;;;;;;;6.30;5.70;;;22.10;69.20;;;;;;6185197;28;89052;-73
2021/12/29 03:28:57;;;;;;;6.95;5.38;;;22.10;69.20;;;;;;6205470;28;89053;-72
2021/12/29 03:32:06;;;;;;;6.93;5.35;;;22.10;69.20;;;;;;6196259;28;89068;-73
2021/12/29 03:35:11;;;;;;;6.32;5.72;;;22.00;70.20;;;;;;6194439;28;87348;-73
2021/12/29 03:38:16;;;;;;;6.97;5.50;;;22.10;69.40;;;;;;6197158;28;89173;-73
2021/12/29 03:41:20;;;;;;;6.07;5.40;;;22.00;69.30;;;;;;6206297;28;88545;-72
2021/12/29 03:44:22;;;;;;;6.57;5.50;;;22.10;69.30;;;;;;6209834;28;90107;-72
2021/12/29 03:47:24;;;;;;;7.25;5.80;;;22.10;69.00;;;;;;6212200;28;89376;-72
2021/12/29 03:50:27;;;;;;;8.93;5.55;;;22.10;68.60;;;;;;6209661;28;87952;-72
2021/12/29 03:53:31;;;;;;;9.10;5.85;;;22.00;68.50;;;;;;6200089;28;89115;-73
2021/12/29 03:56:33;;;;;;;7.35;5.97;;;22.00;68.70;;;;;;6211213;28;88087;-73
2021/12/29 03:59:35;;;;;;;6.70;5.95;;;22.00;68.70;;;;;;6209695;28;89025;-72
2021/12/29 04:02:38;;;;;;;9.05;6.28;;;22.00;68.80;;;;;;6200101;28;88400;-73
2021/12/29 04:05:40;;;;;;;9.27;5.93;;;22.00;68.80;;;;;;6185497;28;88628;-73
2021/12/29 04:08:44;;;;;;;6.35;5.68;;;22.00;68.90;;;;;;6207241;28;89322;-72
2021/12/29 04:11:50;;;;;;;7.30;5.93;;;21.90;68.90;;;;;;6211044;28;89070;-72
2021/12/29 04:14:54;;;;;;;8.05;5.97;;;22.00;69.00;;;;;;6210490;28;89990;-71
2021/12/29 04:17:59;;;;;;;10.57;6.10;;;21.90;69.10;;;;;;6212075;28;89544;-70
2021/12/29 04:21:03;;;;;;;8.55;5.95;;;21.90;69.20;;;;;;6196424;28;88997;-71
2021/12/29 04:24:07;;;;;;;7.28;6.47;;;21.90;69.30;;;;;;6209583;28;89126;-72
2021/12/29 04:27:09;;;;;;;7.38;5.80;;;21.90;69.30;;;;;;6207003;28;89143;-72
2021/12/29 04:30:11;;;;;;;7.53;6.07;;;21.90;69.30;;;;;;6199924;28;89027;-73
2021/12/29 04:33:13;;;;;;;9.73;6.32;;;21.90;69.30;;;;;;6196908;28;89100;-72
2021/12/29 04:36:15;;;;;;;7.70;6.90;;;21.90;69.30;;;;;;6209925;28;88271;-72
2021/12/29 04:39:19;;;;;;;8.60;7.00;;;21.90;69.30;;;;;;6221280;28;89167;-72
2021/12/29 04:42:20;;;;;;;9.18;6.45;;;21.90;69.30;;;;;;6199281;28;89421;-71
2021/12/29 04:45:23;;;;;;;6.80;6.10;;;22.00;69.20;;;;;;6208622;28;90020;-74
2021/12/29 04:48:25;;;;;;;7.63;6.25;;;21.90;70.00;;;;;;6208429;28;89069;-74
2021/12/29 04:51:33;;;;;;;7.63;6.28;;;22.00;69.20;;;;;;6208134;28;88540;-74
2021/12/29 04:54:37;;;;;;;6.90;6.20;;;22.00;69.20;;;;;;6199081;28;89709;-74
2021/12/29 04:57:39;;;;;;;6.88;5.72;;;22.00;69.20;;;;;;6195024;28;88949;-73
2021/12/29 05:00:41;;;;;;;7.35;6.15;;;22.00;69.10;;;;;;6201379;28;88043;-73
2021/12/29 05:03:44;;;;;;;7.25;6.05;;;22.00;69.20;;;;;;6183527;28;89552;-71
2021/12/29 05:10:08;;;;;;;6.93;5.68;;;22.10;69.20;;;;;;6208485;28;87065;-72
2021/12/29 05:13:10;;;;;;;6.00;5.40;;;22.10;69.20;;;;;;6198783;28;89192;-72
2021/12/29 05:16:12;;;;;;;6.70;5.70;;;22.10;70.10;;;;;;6210065;28;89081;-73
2021/12/29 05:19:14;;;;;;;6.20;5.38;;;22.10;69.30;;;;;;6197849;28;89160;-73
2021/12/29 05:22:17;;;;;;;7.03;5.82;;;22.10;69.30;;;;;;6207870;28;88077;-74
2021/12/29 05:25:20;;;;;;;6.85;5.20;;;22.20;69.30;;;;;;6210148;28;89202;-75
2021/12/29 05:28:24;;;;;;;6.55;5.60;;;22.10;69.30;;;;;;6197695;28;89302;-72
2021/12/29 05:31:26;;;;;;;5.72;5.13;;;22.10;69.30;;;;;;6187684;28;89077;-73
2021/12/29 05:34:28;;;;;;;6.03;5.25;;;22.20;69.40;;;;;;6187879;28;89183;-72
2021/12/29 05:37:30;;;;;;;5.93;5.28;;;22.20;69.40;;;;;;6199933;28;88854;-71
2021/12/29 05:40:34;;;;;;;7.05;5.13;;;22.20;69.40;;;;;;6198886;28;89320;-72
2021/12/29 05:43:36;;;;;;;6.22;5.10;;;22.30;69.40;;;;;;6186712;28;89525;-72
2021/12/29 05:46:38;;;;;;;5.93;4.78;;;22.30;69.30;;;;;;6198000;28;89970;-72
2021/12/29 05:49:40;;;;;;;7.15;4.72;;;22.20;69.30;;;;;;6197321;28;89619;-73
2021/12/29 05:52:42;;;;;;;7.47;4.25;;;22.30;69.40;;;;;;6201242;28;89509;-72
2021/12/29 05:55:46;;;;;;;5.28;4.20;;;22.20;69.60;;;;;;6213618;28;88036;-72
2021/12/29 05:58:48;;;;;;;4.40;3.88;;;22.20;69.60;;;;;;6202056;28;89041;-73
2021/12/29 06:01:50;;;;;;;5.35;3.63;;;22.30;69.60;;;;;;6205941;28;89168;-72
2021/12/29 06:04:52;;;;;;;4.25;3.65;;;22.30;69.70;;;;;;6201037;28;89047;-72
2021/12/29 06:07:54;;;;;;;5.22;4.00;;;22.20;69.60;;;;;;6221047;28;87280;-73
2021/12/29 06:10:58;;;;;;;6.63;3.92;;;22.30;69.70;;;;;;6211225;28;89372;-71
2021/12/29 06:14:00;;;;;;;5.28;4.03;;;22.30;69.70;;;;;;6194586;28;89334;-73
2021/12/29 06:17:02;;;;;;;7.03;3.95;;;22.30;69.80;;;;;;6207944;28;90046;-72
2021/12/29 06:20:06;;;;;;;8.05;4.20;;;22.30;69.80;;;;;;6198700;28;89130;-70
2021/12/29 06:23:12;;;;;;;8.43;4.03;;;22.30;70.30;;;;;;6204959;28;88963;-74
2021/12/29 06:26:16;;;;;;;9.93;4.40;;;22.30;70.50;;;;;;6206355;28;87912;-69
2021/12/29 06:29:18;;;;;;;6.15;4.13;;;22.40;70.50;;;;;;6202135;28;89123;-72
2021/12/29 06:32:20;;;;;;;4.22;3.83;;;22.40;70.80;;;;;;6201786;28;89132;-72
2021/12/29 06:35:22;;;;;;;7.35;4.22;;;22.50;70.70;;;;;;6192758;28;89252;-71
2021/12/29 06:38:24;;;;;;;5.68;3.85;;;22.50;70.80;;;;;;6220171;28;88559;-74
2021/12/29 06:41:27;;;;;;;8.55;4.85;;;22.60;70.80;;;;;;6196365;28;89020;-71
2021/12/29 06:44:30;;;;;;;8.57;4.70;;;22.60;71.10;;;;;;6220094;28;87042;-72
2021/12/29 06:47:32;;;;;;;7.82;4.50;;;22.60;71.50;;;;;;6206648;28;89234;-72
2021/12/29 06:50:34;;;;;;;7.28;4.35;;;22.60;71.50;;;;;;6197815;28;89171;-72
2021/12/29 06:53:36;;;;;;;5.13;4.20;;;22.60;71.60;;;;;;6216977;28;89019;-72
2021/12/29 06:56:39;;;;;;;5.60;4.32;;;22.60;71.60;;;;;;6210008;28;89145;-71
2021/12/29 07:00:00;;;;;;;7.45;4.05;;;22.60;71.50;;;;;;6204625;28;87952;-70
2021/12/29 07:03:02;;;;;;;6.20;3.90;;;22.60;71.60;;;;;;6220079;28;89235;-71
2021/12/29 07:06:04;;;;;;;7.20;3.90;;;22.70;71.60;;;;;;6193764;28;89157;-72
2021/12/29 07:09:06;;;;;;;5.40;3.70;;;22.70;71.80;;;;;;6194212;28;88364;-72
2021/12/29 07:12:10;;;;;;;7.63;4.00;;;22.70;71.90;;;;;;6190391;28;89673;-71
2021/12/29 07:15:13;;;;;;;4.82;3.78;;;22.70;72.00;;;;;;6206679;28;89113;-71
2021/12/29 07:18:15;;;;;;;5.05;3.60;;;22.70;72.20;;;;;;6205775;28;90284;-72
2021/12/29 07:21:17;;;;;;;4.97;3.90;;;22.70;72.30;;;;;;6200071;28;89387;-70
2021/12/29 07:24:19;;;;;;;4.30;3.60;;;22.70;72.20;;;;;;6203843;28;89035;-71
2021/12/29 07:27:23;;;;;;;4.25;3.60;;;22.70;72.20;;;;;;6211583;28;89058;-70
2021/12/29 07:30:25;;;;;;;4.95;3.45;;;22.70;72.20;;;;;;6196773;28;89063;-71
2021/12/29 07:33:27;;;;;;;5.07;3.25;;;22.80;72.20;;;;;;6208670;28;89433;-72
2021/12/29 07:36:29;;;;;;;3.85;3.30;;;22.80;72.10;;;;;;6204438;28;89365;-72
2021/12/29 07:39:31;;;;;;;6.03;3.70;;;22.80;72.20;;;;;;6183982;28;88554;-69
2021/12/29 07:42:35;;;;;;;3.75;3.33;;;22.80;72.10;;;;;;6195229;28;89537;-75
2021/12/29 07:45:41;;;;;;;4.43;3.33;;;22.80;71.90;;;;;;6202366;28;89131;-74
2021/12/29 07:48:44;;;;;;;5.13;3.45;;;22.80;71.50;;;;;;6210233;28;90396;-74
2021/12/29 07:51:46;;;;;;;5.22;3.30;;;22.90;71.30;;;;;;6207839;28;89052;-74
2021/12/29 07:54:48;;;;;;;6.20;3.55;;;22.90;71.30;;;;;;6206370;28;88274;-77
2021/12/29 07:57:51;;;;;;;5.05;3.20;;;22.90;71.10;;;;;;6215054;28;89138;-73
2021/12/29 08:00:53;;;;;;;6.78;3.90;;;22.90;71.10;;;;;;6194608;28;89291;-76
2021/12/29 08:03:56;;;;;;;6.90;3.78;;;22.90;71.20;;;;;;6192983;28;89474;-75
2021/12/29 08:06:58;;;;;;;5.85;3.50;;;22.90;71.20;;;;;;6192316;28;89083;-75
2021/12/29 08:10:01;;;;;;;5.22;3.45;;;22.90;71.30;;;;;;6188254;28;87238;-73
2021/12/29 08:13:06;;;;;;;6.35;3.85;;;23.00;71.30;;;;;;6200140;28;89241;-72
2021/12/29 08:16:08;;;;;;;5.80;3.67;;;23.00;71.30;;;;;;6205668;28;89057;-73
2021/12/29 08:19:10;;;;;;;7.30;3.92;;;23.00;71.50;;;;;;6208883;28;90096;-73
2021/12/29 08:22:13;;;;;;;5.63;3.50;;;23.00;71.40;;;;;;6217355;28;89272;-73
2021/12/29 08:25:15;;;;;;;5.18;3.47;;;23.00;71.30;;;;;;6194983;28;89154;-73
2021/12/29 08:28:20;;;;;;;6.70;3.35;;;23.00;71.20;;;;;;6198277;28;89138;-73
2021/12/29 08:31:22;;;;;;;7.60;3.75;;;23.00;71.10;;;;;;6198055;28;89366;-72
2021/12/29 08:34:25;;;;;;;9.10;4.25;;;23.10;71.20;;;;;;6211704;28;89125;-71
2021/12/29 08:37:27;;;;;;;11.18;5.07;;;23.10;71.30;;;;;;6210559;28;89040;-73
2021/12/29 08:40:29;;;;;;;9.95;4.35;;;23.10;71.70;;;;;;6216508;28;88447;-73
2021/12/29 08:43:33;;;;;;;414.40;257.40;;;23.10;71.70;;;;;;6206855;28;88019;-73
2021/12/29 08:46:35;;;;;;;63.88;37.30;;;23.00;72.10;;;;;;6195037;28;89019;-72
2021/12/29 08:49:37;;;;;;;44.92;24.20;;;23.00;72.10;;;;;;6203510;28;90054;-74
2021/12/29 08:52:40;;;;;;;36.88;20.40;;;23.10;71.90;;;;;;6201107;28;89150;-73
2021/12/29 08:55:46;;;;;;;33.20;18.25;;;23.00;72.10;;;;;;6195402;28;89395;-74
2021/12/29 08:58:50;;;;;;;31.42;16.85;;;23.10;72.50;;;;;;6187736;28;89122;-71
2021/12/29 09:01:53;;;;;;;20.17;10.45;;;23.00;72.30;;;;;;6218213;28;87983;-71
2021/12/29 09:04:55;;;;;;;26.48;12.75;;;23.10;71.30;;;;;;6211082;28;89230;-71
2021/12/29 09:07:57;;;;;;;22.75;11.27;;;23.00;71.30;;;;;;6207114;28;89074;-71
2021/12/29 09:10:59;;;;;;;18.48;10.27;;;23.00;71.60;;;;;;6214242;28;88341;-73
2021/12/29 09:14:03;;;;;;;19.42;9.25;;;23.10;71.10;;;;;;6212446;28;89125;-72
2021/12/29 09:17:05;;;;;;;15.55;8.13;;;23.10;71.10;;;;;;6196013;28;89563;-72
2021/12/29 09:20:13;;;;;;;14.88;7.80;;;23.10;71.00;;;;;;6199233;28;89975;-71
2021/12/29 09:23:16;;;;;;;12.13;6.47;;;23.10;70.70;;;;;;6208293;28;88918;-72
2021/12/29 09:26:18;;;;;;;11.90;6.60;;;23.10;70.60;;;;;;6210407;28;89082;-72
2021/12/29 09:29:22;;;;;;;9.63;5.60;;;23.10;70.60;;;;;;6189809;28;89101;-71
2021/12/29 09:32:29;;;;;;;10.85;5.40;;;23.10;70.60;;;;;;6205129;28;87958;-72
2021/12/29 09:35:31;;;;;;;10.18;5.53;;;23.10;70.70;;;;;;6213628;28;90901;-71
2021/12/29 09:38:36;;;;;;;8.38;5.32;;;23.10;76.50;;;;;;6208423;28;89207;-73
2021/12/29 09:41:38;;;;;;;8.23;4.88;;;23.10;75.90;;;;;;6209223;28;88328;-71
2021/12/29 09:44:42;;;;;;;9.30;4.53;;;23.20;75.00;;;;;;6207833;28;89336;-70
2021/12/29 09:47:44;;;;;;;9.52;4.85;;;23.20;74.50;;;;;;6204720;28;87993;-71
2021/12/29 09:50:47;;;;;;;10.10;5.03;;;23.30;74.10;;;;;;6208562;28;89884;-70
2021/12/29 09:53:50;;;;;;;12.50;4.80;;;23.20;73.30;;;;;;6203685;28;89269;-71
2021/12/29 09:56:52;;;;;;;12.65;4.88;;;23.30;73.00;;;;;;6197023;28;89414;-70
2021/12/29 09:59:55;;;;;;;8.23;4.82;;;23.20;72.60;;;;;;6196895;28;89367;-71
2021/12/29 10:03:00;;;;;;;8.27;4.20;;;23.20;72.50;;;;;;6209932;28;89351;-70
2021/12/29 10:06:05;;;;;;;7.72;4.50;;;23.20;72.50;;;;;;6209057;28;87965;-71
2021/12/29 10:09:13;;;;;;;8.52;4.47;;;23.20;72.50;;;;;;6201785;28;89105;-71
2021/12/29 10:12:19;;;;;;;8.50;4.72;;;23.20;72.30;;;;;;6206430;28;88381;-71
2021/12/29 10:15:28;;;;;;;5.68;3.90;;;23.20;72.40;;;;;;6207329;28;89253;-71
2021/12/29 10:18:32;;;;;;;7.45;4.30;;;23.20;72.20;;;;;;6203851;28;89071;-71
2021/12/29 10:21:35;;;;;;;6.28;4.20;;;23.30;72.20;;;;;;6208648;28;90078;-70
2021/12/29 10:24:37;;;;;;;6.72;4.03;;;23.20;72.10;;;;;;6192941;28;89008;-71
2021/12/29 10:27:41;;;;;;;7.70;4.32;;;23.20;72.00;;;;;;6197170;28;89162;-70
2021/12/29 10:30:44;;;;;;;7.28;3.92;;;23.20;72.00;;;;;;6183441;28;89099;-70
2021/12/29 10:33:48;;;;;;;6.57;4.03;;;23.20;72.00;;;;;;6205366;28;89399;-70
2021/12/29 10:36:53;;;;;;;6.20;3.67;;;23.20;71.90;;;;;;6197139;28;89406;-71
2021/12/29 10:39:57;;;;;;;7.10;3.95;;;23.20;71.90;;;;;;6217915;28;89163;-71
2021/12/29 10:43:01;;;;;;;5.65;3.50;;;23.20;71.80;;;;;;6194022;28;87179;-70
2021/12/29 10:46:05;;;;;;;4.43;3.38;;;23.20;71.90;;;;;;6187789;28;89011;-68
2021/12/29 10:49:08;;;;;;;5.85;3.83;;;23.20;72.10;;;;;;6207069;28;88250;-71
2021/12/29 10:52:10;;;;;;;5.65;3.60;;;23.20;72.00;;;;;;6203291;28;90041;-72
2021/12/29 10:55:18;;;;;;;5.20;3.42;;;23.20;72.20;;;;;;6197627;28;89206;-73
2021/12/29 10:58:23;;;;;;;4.38;2.92;;;23.30;72.30;;;;;;6211680;28;87927;-73
2021/12/29 11:01:26;;;;;;;7.85;3.40;;;23.20;72.20;;;;;;6205292;28;87959;-73
2021/12/29 11:04:29;;;;;;;4.63;3.22;;;23.30;72.20;;;;;;6192230;28;88001;-74
2021/12/29 11:07:33;;;;;;;4.95;3.30;;;23.30;72.10;;;;;;6190714;28;89176;-72
2021/12/29 11:10:36;;;;;;;4.30;3.20;;;23.30;72.00;;;;;;6191531;28;89160;-72
2021/12/29 11:13:38;;;;;;;4.68;3.00;;;23.30;71.90;;;;;;6205177;28;88575;-73
2021/12/29 11:16:43;;;;;;;5.25;2.83;;;23.30;71.80;;;;;;6193419;28;89326;-73
2021/12/29 11:19:51;;;;;;;3.42;2.55;;;23.30;71.60;;;;;;6206587;28;89060;-72
2021/12/29 11:23:05;;;;;;;5.43;2.97;;;23.30;71.60;;;;;;6181741;28;90379;-77
2021/12/29 11:26:11;;;;;;;7.45;3.38;;;23.30;71.80;;;;;;6190713;28;89075;-73
2021/12/29 11:29:18;;;;;;;5.35;2.72;;;23.30;71.80;;;;;;6205039;28;88325;-73
2021/12/29 11:32:25;;;;;;;5.68;3.10;;;23.30;72.00;;;;;;6200731;28;89105;-73
2021/12/29 11:35:27;;;;;;;4.95;2.75;;;23.30;72.30;;;;;;6182153;28;87974;-73
2021/12/29 11:38:30;;;;;;;5.75;2.78;;;23.30;72.50;;;;;;6206782;28;89046;-73
2021/12/29 11:41:32;;;;;;;3.45;2.30;;;23.30;72.20;;;;;;6205482;28;89075;-73
2021/12/29 11:44:35;;;;;;;4.15;2.40;;;23.30;71.10;;;;;;6207211;28;88646;-72
2021/12/29 11:47:39;;;;;;;2.50;2.08;;;23.30;71.10;;;;;;6205022;28;89201;-74
2021/12/29 11:50:48;;;;;;;3.15;1.90;;;23.30;70.50;;;;;;6203758;28;89167;-73
2021/12/29 11:53:55;;;;;;;4.47;2.25;;;23.30;70.80;;;;;;6195615;28;90045;-73
2021/12/29 11:56:57;;;;;;;5.68;2.42;;;23.30;70.80;;;;;;6195467;28;89201;-73
2021/12/29 12:00:08;;;;;;;6.35;2.50;;;23.30;71.30;;;;;;6187097;28;89179;-72
2021/12/29 12:03:14;;;;;;;4.00;2.28;;;23.30;71.80;;;;;;6196875;28;89231;-72
2021/12/29 12:06:24;;;;;;;3.53;2.25;;;23.30;72.00;;;;;;6195068;28;90028;-73
2021/12/29 12:09:26;;;;;;;3.80;2.20;;;23.30;72.00;;;;;;6208917;28;89003;-72
2021/12/29 12:12:35;;;;;;;4.28;2.30;;;23.30;72.00;;;;;;6212671;28;89082;-72
2021/12/29 12:15:39;;;;;;;5.68;2.10;;;23.30;72.00;;;;;;6198345;28;88707;-72
2021/12/29 12:18:49;;;;;;;3.85;2.20;;;23.20;72.00;;;;;;6209374;28;88927;-72
2021/12/29 12:22:04;;;;;;;4.40;2.38;;;23.20;72.00;;;;;;6197615;28;87862;-72
2021/12/29 12:25:07;;;;;;;4.35;2.30;;;23.20;72.00;;;;;;6209300;28;89998;-72
2021/12/29 12:28:16;;;;;;;4.28;1.95;;;23.10;72.00;;;;;;6207812;28;88052;-72
2021/12/29 12:31:27;;;;;;;4.70;2.10;;;23.10;72.00;;;;;;6207498;28;89082;-73
2021/12/29 12:34:31;;;;;;;3.40;2.13;;;23.10;72.00;;;;;;6208654;28;88209;-72
2021/12/29 12:37:35;;;;;;;3.15;2.30;;;23.10;72.10;;;;;;6201262;28;89036;-72
2021/12/29 12:40:37;;;;;;;2.80;2.08;;;23.10;72.20;;;;;;6195611;28;89167;-73
2021/12/29 12:43:51;;;;;;;2.90;2.30;;;23.10;72.20;;;;;;6208904;28;89003;-72
2021/12/29 12:46:53;;;;;;;3.83;2.15;;;23.10;72.20;;;;;;6202816;28;88624;-72
2021/12/29 12:49:57;;;;;;;3.60;2.30;;;23.10;72.10;;;;;;6206280;28;89060;-72
2021/12/29 12:52:59;;;;;;;2.75;2.20;;;23.10;72.10;;;;;;6207604;28;89112;-73
2021/12/29 12:56:05;;;;;;;3.05;2.10;;;23.10;72.00;;;;;;6209575;28;90048;-72
2021/12/29 12:59:12;;;;;;;2.95;2.00;;;23.10;72.00;;;;;;6207102;28;89126;-73
2021/12/29 13:02:21;;;;;;;3.30;1.90;;;23.10;72.00;;;;;;6206601;28;89038;-72
2021/12/29 13:05:26;;;;;;;3.25;2.00;;;23.10;72.00;;;;;;6207969;28;88994;-72
2021/12/29 13:08:30;;;;;;;2.88;1.70;;;23.10;71.90;;;;;;6195991;28;89483;-72
2021/12/29 13:11:34;;;;;;;3.65;2.03;;;23.10;71.90;;;;;;6207346;28;88939;-72
2021/12/29 13:14:36;;;;;;;4.07;2.10;;;23.10;71.80;;;;;;6216295;28;89120;-72
2021/12/29 13:17:42;;;;;;;2.88;2.03;;;23.10;71.80;;;;;;6202020;28;87242;-73
2021/12/29 13:20:48;;;;;;;4.63;2.33;;;23.10;71.80;;;;;;6216629;28;89500;-72
2021/12/29 13:23:50;;;;;;;3.42;2.10;;;23.10;71.70;;;;;;6207899;28;89099;-73
2021/12/29 13:26:54;;;;;;;2.60;2.00;;;23.10;71.70;;;;;;6194864;28;90437;-72
2021/12/29 13:29:59;;;;;;;3.08;1.80;;;23.10;71.60;;;;;;6207862;28;88982;-72
2021/12/29 13:33:02;;;;;;;2.70;1.70;;;23.10;72.60;;;;;;6208220;28;89080;-72
2021/12/29 13:36:07;;;;;;;2.08;1.70;;;23.10;71.60;;;;;;6207375;28;88039;-72
2021/12/29 13:39:09;;;;;;;3.72;1.90;;;23.10;71.60;;;;;;6207130;28;89123;-73
2021/12/29 13:42:11;;;;;;;3.28;1.63;;;23.20;71.60;;;;;;6201144;28;89086;-72
2021/12/29 13:45:24;;;;;;;3.25;1.80;;;23.20;71.50;;;;;;6202232;28;89124;-72
2021/12/29 13:48:28;;;;;;;2.95;1.92;;;23.20;71.50;;;;;;6202322;28;88293;-73
2021/12/29 13:51:34;;;;;;;2.15;1.90;;;23.10;71.40;;;;;;6196742;28;89097;-72
2021/12/29 13:54:36;;;;;;;2.40;1.75;;;23.10;71.40;;;;;;6208421;28;89418;-73
2021/12/29 13:57:38;;;;;;;2.38;1.73;;;23.10;71.30;;;;;;6216613;28;90066;-72
2021/12/29 14:00:40;;;;;;;3.25;1.80;;;23.10;71.40;;;;;;6207736;28;89090;-73
2021/12/29 14:03:42;;;;;;;2.58;1.77;;;23.10;71.40;;;;;;6193867;28;89117;-72
2021/12/29 14:06:46;;;;;;;2.78;1.95;;;23.10;71.40;;;;;;6206164;28;89044;-73
2021/12/29 14:09:48;;;;;;;2.28;1.77;;;23.10;71.50;;;;;;6203396;28;89134;-73
2021/12/29 14:12:50;;;;;;;2.03;1.77;;;23.10;72.30;;;;;;6198466;28;89200;-72
2021/12/29 14:16:02;;;;;;;2.42;1.63;;;23.10;71.40;;;;;;6205441;28;89011;-72
2021/12/29 14:19:08;;;;;;;2.67;1.83;;;23.10;71.40;;;;;;6196134;28;88290;-72
2021/12/29 14:22:21;;;;;;;2.35;1.63;;;23.10;71.40;;;;;;6221295;28;89590;-72
2021/12/29 14:25:24;;;;;;;2.72;1.98;;;23.10;71.40;;;;;;6182836;28;89083;-73
2021/12/29 14:28:27;;;;;;;2.30;1.60;;;23.10;71.30;;;;;;6184047;28;90087;-72
2021/12/29 14:31:37;;;;;;;2.65;1.65;;;23.10;71.30;;;;;;6206342;28;89731;-73
2021/12/29 14:34:42;;;;;;;1.67;1.35;;;23.10;71.30;;;;;;6207517;28;89103;-72
2021/12/29 14:37:45;;;;;;;1.85;1.50;;;23.10;71.30;;;;;;6197940;28;89008;-73
2021/12/29 14:40:48;;;;;;;1.77;1.40;;;23.10;71.20;;;;;;6203591;28;89168;-73
2021/12/29 14:43:58;;;;;;;1.60;1.50;;;23.20;71.30;;;;;;6187714;28;89080;-72
2021/12/29 14:47:02;;;;;;;2.25;1.60;;;23.10;71.20;;;;;;6194377;28;89184;-72
2021/12/29 14:50:07;;;;;;;2.08;1.63;;;23.10;71.20;;;;;;6208784;28;88546;-72
2021/12/29 14:53:11;;;;;;;2.22;1.65;;;23.10;71.20;;;;;;6219522;28;89101;-71
2021/12/29 14:56:16;;;;;;;2.20;1.73;;;23.10;71.20;;;;;;6207673;28;89037;-73
2021/12/29 14:59:18;;;;;;;1.95;1.60;;;23.10;71.30;;;;;;6191925;28;88803;-72
2021/12/29 15:02:22;;;;;;;1.67;1.50;;;23.10;71.20;;;;;;6204672;28;89079;-71
2021/12/29 15:05:27;;;;;;;2.10;1.60;;;23.10;71.20;;;;;;6198168;28;89157;-72
2021/12/29 15:08:31;;;;;;;2.17;1.38;;;23.10;71.30;;;;;;6200724;28;89402;-73
2021/12/29 15:11:33;;;;;;;1.85;1.45;;;23.10;71.20;;;;;;6204821;28;89278;-72
2021/12/29 15:14:36;;;;;;;1.70;1.38;;;23.10;71.10;;;;;;6205519;28;89144;-71
2021/12/29 15:17:38;;;;;;;1.70;1.42;;;23.10;71.20;;;;;;6206619;28;90545;-72
2021/12/29 15:20:44;;;;;;;2.28;1.50;;;23.10;71.20;;;;;;6193112;28;88647;-72
2021/12/29 15:23:48;;;;;;;2.53;1.55;;;23.10;71.10;;;;;;6206662;28;89092;-72
2021/12/29 15:26:50;;;;;;;2.00;1.50;;;23.10;71.20;;;;;;6219828;28;89047;-71
2021/12/29 15:30:11;;;;;;;1.48;1.38;;;23.10;71.10;;;;;;6192530;28;90037;-72
2021/12/29 15:33:14;;;;;;;1.50;1.40;;;23.10;71.10;;;;;;6183426;28;90282;-72
2021/12/29 15:36:16;;;;;;;1.50;1.30;;;23.10;71.10;;;;;;6207249;28;87950;-72
2021/12/29 15:39:20;;;;;;;1.85;1.40;;;23.10;71.00;;;;;;6210317;28;89057;-72
2021/12/29 15:42:22;;;;;;;1.70;1.40;;;23.10;71.00;;;;;;6209726;28;88077;-72
2021/12/29 15:45:26;;;;;;;2.03;1.38;;;23.10;71.00;;;;;;6198291;28;89008;-72
2021/12/29 15:48:28;;;;;;;2.13;1.30;;;23.10;71.00;;;;;;6208357;28;89082;-72
2021/12/29 15:51:30;;;;;;;1.52;1.33;;;23.10;71.00;;;;;;6207554;28;88358;-72
2021/12/29 15:54:34;;;;;;;1.30;1.20;;;23.10;71.10;;;;;;6198190;28;89419;-72
2021/12/29 15:57:36;;;;;;;1.73;1.40;;;23.10;71.00;;;;;;6195768;28;88135;-72
2021/12/29 16:00:41;;;;;;;1.83;1.40;;;23.10;71.00;;;;;;6213627;28;91636;-73